Daytona Beach, FL

7:12 PM EDT on September 20, 2014 (GMT -0400)
ERAU Daytona Beach | Change Station
CLOSE
Current Station
Personal Weather Station
Location: Daytona Beach, FL
Elevation: 26 ft
Nearby Weather Stations

Elev 26 ft 29.18 °N, 81.05 °W | Updated 8 seconds ago

Light Rain
Light Rain
73.9 °F
Feels Like 71 °F
N
6.0
Wind Variable Wind from North
Gusts 11.0 mph

Today
High -- | Low -- °F
--% Chance of Precip.
Yesterday
High -- | Low -- °F
Precip. -- in
7:11 AM 7:23 PM
Waning Crescent, 10% visible
Pressure 29.89 in
Visibility 9.0 miles
Clouds Scattered Clouds 2500 ft
Mostly Cloudy 4000 ft
Mostly Cloudy 8000 ft
Mostly Cloudy 15000 ft
Heat Index 71 °F
Dew Point 73 °F
Humidity 96%
Rainfall 0.01 in
Snow Depth Not available.
UV 0.0 out of 12
Pollen 5.50 out of 12
Air Quality Not available.
Flu Activity Not available.
METAR KDAB 202253Z 31008KT 9SM -RA SCT025CB BKN040 BKN080 BKN150 23/22 A2989 RMK AO2 SLP121 CB NE MOV S CB DSNT NW P0031 T02330222 $

More Conditions Fewer Conditions

Pressure 29.89 in
Visibility 9.0 miles
Clouds Scattered Clouds 2500 ft
Mostly Cloudy 4000 ft
Mostly Cloudy 8000 ft
Mostly Cloudy 15000 ft
Heat Index 71 °F
Dew Point 73 °F
Humidity 96%
Rainfall 0.01 in
Snow Depth Not available.
UV 0.0 out of 12
Pollen 5.50 out of 12
Air Quality Not available.
Flu Activity Not available.
METAR KDAB 202253Z 31008KT 9SM -RA SCT025CB BKN040 BKN080 BKN150 23/22 A2989 RMK AO2 SLP121 CB NE MOV S CB DSNT NW P0031 T02330222 $

More Conditions Fewer Conditions

10-Day Weather Forecast

Almanac

Astronomy

Sep. 20, 2014 Rise Set
Actual Time 7:11 AM EDT 7:23 PM EDT
Civil Twilight 6:47 AM EDT 7:46 PM EDT
Nautical Twilight 6:20 AM EDT 8:14 PM EDT
Astronomical Twilight 5:52 AM EDT 8:42 PM EDT
Moon 4:02 AM EDT 5:15 PM EDT
Length of Visible Light 12h 59m
Length of Day
12h 11m
Tomorrow will be 1m 44s shorter.
Waning Crescent, 10% of the Moon is Illuminated
Today
Waning Crescent
Sep 24
New
Oct 1
First Quarter
Oct 8
Full
Oct 15
Last Quarter

Today's Extremes

State Highs State Lows

Community

WunderPhotos

Upload Photos

1,754,972 photos uploaded!

WunderBlogs® & News

Nearby

Snow Depth

Station Depth Elevation
No new snow has been reported.

Earthquake Activity

City Distance Mag. Time & Date
No recent earthquake activity has been reported nearby.
Minimum magnitude displayed is 2.5.

Coastal Water Temperatures

Place Temperature
Trident Pier, FL 84.0 °F
Mayport (Bar Pilots Dock), FL 82.9 °F
Fernandina Beach, FL 82.9 °F

Nearby Weather Stations